Station info - map view · info · telemetry · weather · raw · status · beacons · messages · bulletins · browse · moving · my account
Callsign, ship name or locator: Clear       
It is possible to search using wildcards (*?) after a prefix. Example: OH*
APRS station W9FZ-15 - show graphs
Map loading...
Comment: Roving in ARRL VHF/UHF Contest
Mic-E message: En route
Location: 43°40.57' N 90°25.60' W - locator EN43SQ82TG - show map - static map
4.4 miles West bearing 292° from Hillsboro, Vernon County, Wisconsin, United States [?]
8.9 miles Southwest bearing 240° from Elroy, Juneau County, Wisconsin, United States
66.2 miles Northwest bearing 309° from Madison, Dane County, Wisconsin, United States
98.6 miles Northwest bearing 315° from Janesville, Rock County, Wisconsin, United States
Last position: 2017-11-15 19:51:25 EST (6d 10h27m ago)
2017-11-15 18:51:25 CST local time at Hillsboro, United States [?]
Altitude: 1102 ft
Course: 108°
Speed: 12 MPH
Device: Kenwood: TM-D710 (rig)
Last path: W9FZ-15>TS4P5W via N9ROY-7*,qAR,N9QIP (good)
Positions stored: 53707
Stations near current position of W9FZ-15 - show more
callsign distance last heard - EST      callsign distance last heard - EST
N9NYA7.0 miles 66°2017-11-16 12:31:40 KD9BLN.C10.6 miles 78°2017-11-22 06:11:55
KD9BLN.B10.6 miles 77°2017-11-22 02:39:37 N9ROY-710.6 miles 77°2017-11-22 06:18:57
KD9BLN-B10.6 miles 77°2017-11-22 06:07:48 KD9BLN-C10.6 miles 77°2017-11-22 06:07:50
KD9BLN B10.6 miles 77°2017-11-22 06:07:59 KD9BLN C10.6 miles 77°2017-11-22 06:08:03
WT9M-813.6 miles 233°2017-11-22 06:10:24 N9QIP-416.1 miles 335°2017-11-22 06:15:12
KVOK19.5 miles 24°2017-11-19 03:02:01 CW388219.6 miles 64°2017-11-22 06:17:05
WT9M-1123.8 miles 253°2017-11-22 05:54:25 KD8LKQ-1224.5 miles 250°2017-11-21 00:04:03
KY5124.5 miles 255°2017-11-19 03:02:11 KD8LKQ-124.6 miles 250°2017-11-17 11:10:54
KD8LKQ-924.6 miles 250°2017-11-22 06:16:59 KCMY24.9 miles 322°2017-11-19 02:56:53
N9ROY-629.5 miles 91°2017-11-22 06:03:08 WI1SKY31.6 miles 301°2017-11-22 06:18:26
Stations which heard W9FZ-15 directly on radio –
callsign pkts first heard - EST last heard longest (tx => rx) longest at - EST
N9QIP-4 3 2017-11-15 18:18:48 2017-11-15 19:45:23 EN43SQ > EN43RV 15.0 miles 337° 2017-11-15 19:45:23
W9LTA-10 1 2017-11-15 19:39:22 2017-11-15 19:39:22 EN43SR > EN54FA 48.4 miles 66° 2017-11-15 19:39:22
KB9ZWL 1 2017-11-15 16:40:31 2017-11-15 16:40:31 EN44FT > EN44FT 1.8 miles 54° 2017-11-15 16:40:31
K0JDD-1 4 2017-11-15 15:39:51 2017-11-15 16:03:58 EN34TW > EN34MV 29.9 miles 263° 2017-11-15 16:03:58
N9UWY-1 5 2017-11-15 17:19:54 2017-11-15 18:14:43 EN43SV > EN44SN 47.0 miles 359° 2017-11-15 18:14:43
N9QIP-9 4 2017-11-15 17:03:31 2017-11-15 18:08:43 EN43RW > EN44HC 42.3 miles 283° 2017-11-15 18:08:43
KC9NVV-3 1 2017-11-15 16:00:58 2017-11-15 16:00:58 EN34SW > EN35QG 23.9 miles 334° 2017-11-15 16:00:58
K0YTH-13 1 2017-11-15 15:06:17 2017-11-15 15:06:17 EN34MW > EN35IA 20.1 miles 289° 2017-11-15 15:06:17
WB0MPE-8 1 2017-11-15 16:25:36 2017-11-15 16:25:36 EN44BV > EN34TN 34.1 miles 230° 2017-11-15 16:25:36
N9ROY-13 1 2017-11-15 17:34:39 2017-11-15 17:34:39 EN44NH > EN44OA 21.3 miles 170° 2017-11-15 17:34:39
WB0MPE-10 1 2017-11-15 15:42:53 2017-11-15 15:42:53 EN34NW > EN34PV 7.9 miles 113° 2017-11-15 15:42:53
N9XH-4 2 2017-11-15 15:01:23 2017-11-15 15:29:34 EN34MW > EN35TK 44.7 miles 34° 2017-11-15 15:29:34
N9ROY-7 2 2017-11-15 19:31:02 2017-11-15 19:51:25 EN43ST > EN43VR 12.6 miles 117° 2017-11-15 19:31:02
KB0HQD-10 3 2017-11-15 15:05:08 2017-11-15 15:31:49 EN34MW > EN35NA 6.6 miles 22° 2017-11-15 15:09:16
WB0MPE-13 1 2017-11-15 15:26:47 2017-11-15 15:26:47 EN34MW > EN35UB 32.8 miles 70° 2017-11-15 15:26:47
W0YC-5 10 2017-11-15 15:00:43 2017-11-15 15:38:19 EN34MW > EN34JX 15.3 miles 284° 2017-11-15 15:29:28
N0AGI-1 10 2017-11-15 15:04:14 2017-11-15 15:36:21 EN34MW > EN35FB 32.6 miles 287° 2017-11-15 15:26:31
N0HOY-10 2 2017-11-15 15:37:15 2017-11-15 15:38:21 EN34MW > EN35KB 13.9 miles 309° 2017-11-15 15:38:21
KD9EJA-10 2 2017-11-15 16:06:59 2017-11-15 16:25:04 EN34UW > EN45BG 30.3 miles 42° 2017-11-15 16:06:59

Only position packets which were originated by the station are shown here. The range statistics show some extra long hops, because some digipeaters do not correctly add themselves to the digipeater path. Please check the raw packets.
About this site
This page shows real-time information collected from the Automatic Position Reporting System Internet network (APRS-IS). APRS is used by amateur (ham) radio operators to transmit real-time position information, weather data, telemetry and messages over the radio. A vehicle equipped with a GPS receiver, a VHF transmitter or HF transceiver and a small computer device called a tracker transmits it's location, speed and course in a small data packet, which is then received by a nearby iGate receiving site which forwards the packet on the Internet. Systems connected to the Internet can send information on the APRS-IS without a radio transmitter, or collect and display information transmitted anywhere in the world.
FAQ · Blog · Discussion group · Linking to aprs.fi · AIS sites · Service status · Database statistics · Advertising on aprs.fi · Technical details · API · Change log · Planned changes · Credits and thanks · Terms Of Service · iPhone/iPad APRS